Time;durP1;ratioP1;P1;durP2;ratioP2;P2;SDS_P1;SDS_P2;PMS_P1;PMS_P2;Temp;Humidity;BMP_temperature;BMP_pressure;BME280_temperature;BME280_humidity;BME280_pressure;Samples;Min_cycle;Max_cycle;Signal;HPM_P1;HPM_P2
2022/10/20 00:00:49;;;;;;;0.00;0.00;;;;;;;15.11;77.27;100195.88;7362727;19;21315;-58
2022/10/20 00:03:14;;;;;;;0.00;0.00;;;;;;;15.13;76.80;100200.13;7363655;19;20497;-58
2022/10/20 00:05:39;;;;;;;0.00;0.00;;;;;;;15.14;77.19;100196.56;7364221;19;20019;-57
2022/10/20 00:08:05;;;;;;;0.05;0.05;;;;;;;15.15;76.90;100200.03;7362664;19;20676;-55
2022/10/20 00:10:30;;;;;;;0.10;0.10;;;;;;;15.15;77.35;100198.25;7362925;19;21140;-56
2022/10/20 00:12:56;;;;;;;0.10;0.10;;;;;;;15.10;76.77;100189.75;7364736;19;20013;-56
2022/10/20 00:15:21;;;;;;;0.00;0.00;;;;;;;15.17;77.32;100201.66;7358753;19;20018;-57
2022/10/20 00:17:47;;;;;;;0.00;0.00;;;;;;;15.17;77.40;100185.91;7363739;19;20015;-58
2022/10/20 00:20:12;;;;;;;0.10;0.10;;;;;;;15.10;77.26;100176.59;7360819;19;20877;-56
2022/10/20 00:22:37;;;;;;;0.00;0.00;;;;;;;15.19;76.94;100205.06;7365090;19;20012;-57
2022/10/20 00:25:03;;;;;;;0.00;0.00;;;;;;;15.21;77.12;100197.97;7359237;19;20030;-58
2022/10/20 00:27:28;;;;;;;0.00;0.00;;;;;;;15.21;77.10;100203.22;7364405;19;20006;-57
2022/10/20 00:29:54;;;;;;;0.05;0.05;;;;;;;15.23;76.93;100200.50;7364258;19;21414;-55
2022/10/20 00:32:19;;;;;;;0.00;0.00;;;;;;;15.25;77.29;100191.59;7363080;19;20037;-58
2022/10/20 00:34:45;;;;;;;0.00;0.00;;;;;;;15.26;77.08;100190.69;7361876;19;20026;-57
2022/10/20 00:37:10;;;;;;;0.03;0.03;;;;;;;15.26;77.13;100177.56;7364542;19;21789;-58
2022/10/20 00:39:36;;;;;;;0.10;0.10;;;;;;;15.29;77.21;100179.16;7362339;19;20010;-58
2022/10/20 00:42:02;;;;;;;0.10;0.10;;;;;;;15.20;76.98;100159.41;7364132;19;20920;-57
2022/10/20 00:44:54;;;;;;;0.10;0.10;;;;;;;15.35;76.09;100168.31;7364586;19;20530;-58
2022/10/20 00:47:32;;;;;;;0.00;0.00;;;;;;;15.37;76.50;100176.16;7260224;19;2004446;-56
2022/10/20 00:50:22;;;;;;;0.10;0.10;;;;;;;15.34;76.66;100174.50;7359363;19;20018;-58
2022/10/20 00:52:48;;;;;;;0.00;0.00;;;;;;;15.35;77.12;100188.50;7362631;19;20014;-58
2022/10/20 00:55:19;;;;;;;0.00;0.00;;;;;;;15.39;76.84;100179.53;7361881;19;20026;-56
2022/10/20 00:57:49;;;;;;;0.00;0.00;;;;;;;15.39;76.78;100176.91;7360289;19;20757;-57
2022/10/20 01:00:15;;;;;;;0.10;0.10;;;;;;;15.37;76.48;100181.41;7363448;19;20019;-58
2022/10/20 01:02:41;;;;;;;0.00;0.00;;;;;;;15.35;77.13;100168.31;7362721;19;20010;-57
2022/10/20 01:05:07;;;;;;;0.00;0.00;;;;;;;15.38;76.82;100173.44;7363264;19;20854;-58
2022/10/20 01:07:32;;;;;;;0.00;0.00;;;;;;;15.39;76.94;100171.66;7362896;19;21130;-58
2022/10/20 01:09:58;;;;;;;0.00;0.00;;;;;;;15.40;76.92;100161.03;7363532;19;20142;-58
2022/10/20 01:12:43;;;;;;;0.10;0.10;;;;;;;15.46;76.34;100154.59;7362001;19;20098;-57
2022/10/20 01:15:26;;;;;;;0.10;0.10;;;;;;;15.46;76.26;100155.50;7359070;19;20620;-58
2022/10/20 01:17:57;;;;;;;0.10;0.10;;;;;;;15.47;76.01;100157.19;7362497;19;20918;-58
2022/10/20 01:20:28;;;;;;;0.00;0.00;;;;;;;15.45;76.35;100158.19;7361916;19;20010;-58
2022/10/20 01:23:13;;;;;;;0.00;0.00;;;;;;;15.47;76.57;100157.19;7362982;19;20795;-58
2022/10/20 01:26:10;;;;;;;0.10;0.10;;;;;;;15.51;76.17;100149.97;7361567;19;20025;-58
2022/10/20 01:28:50;;;;;;;0.00;0.00;;;;;;;15.50;76.44;100146.47;7257134;19;2004768;-56
2022/10/20 01:31:43;;;;;;;0.00;0.00;;;;;;;15.53;75.73;100142.84;7362024;19;20469;-58
2022/10/20 01:34:29;;;;;;;0.00;0.00;;;;;;;15.54;76.34;100141.91;7262028;19;2004417;-57
2022/10/20 01:36:57;;;;;;;0.05;0.05;;;;;;;15.49;76.58;100136.03;7360702;19;20494;-58
2022/10/20 01:39:30;;;;;;;0.10;0.10;;;;;;;15.52;76.65;100144.63;7361214;19;20025;-57
2022/10/20 01:42:24;;;;;;;0.03;0.03;;;;;;;15.55;76.14;100127.81;7359283;19;20017;-58
2022/10/20 01:44:54;;;;;;;0.00;0.00;;;;;;;15.46;76.45;100107.25;7258386;19;2004638;-56
2022/10/20 01:47:23;;;;;;;0.00;0.00;;;;;;;15.55;76.56;100127.81;7360703;19;20014;-57
2022/10/20 01:49:51;;;;;;;0.00;0.00;;;;;;;15.54;76.75;100116.44;7363609;19;20022;-57
2022/10/20 01:52:16;;;;;;;0.00;0.00;;;;;;;15.49;76.95;100112.34;7356085;19;20035;-57
2022/10/20 01:54:42;;;;;;;0.00;0.00;;;;;;;15.55;77.04;100123.41;7361316;19;20014;-58
2022/10/20 01:57:33;;;;;;;0.03;0.03;;;;;;;15.61;76.26;100124.00;7359799;19;20027;-57
2022/10/20 02:00:01;;;;;;;0.00;0.00;;;;;;;15.57;76.96;100110.19;7354476;19;20613;-58
2022/10/20 02:02:38;;;;;;;0.00;0.00;;;;;;;15.61;76.74;100111.69;7359663;19;20015;-58
2022/10/20 02:05:31;;;;;;;0.00;0.00;;;;;;;15.65;75.91;100113.28;7363870;19;20007;-58
2022/10/20 02:08:21;;;;;;;0.00;0.00;;;;;;;15.66;76.33;100117.63;7258634;19;2004432;-57
2022/10/20 02:10:51;;;;;;;0.00;0.00;;;;;;;15.65;76.59;100113.28;7256293;19;2004321;-58
2022/10/20 02:13:19;;;;;;;0.08;0.08;;;;;;;15.65;76.98;100112.44;7363391;19;20002;-58
2022/10/20 02:15:52;;;;;;;0.00;0.00;;;;;;;15.68;76.58;100107.88;7360420;19;20023;-57
2022/10/20 02:18:24;;;;;;;0.00;0.00;;;;;;;15.66;76.89;100099.22;7360795;19;20010;-57
2022/10/20 02:20:52;;;;;;;0.00;0.00;;;;;;;15.68;77.02;100104.38;7360599;19;20014;-56
2022/10/20 02:23:18;;;;;;;0.10;0.10;;;;;;;15.67;76.76;100106.16;7364419;19;20352;-58
2022/10/20 02:25:48;;;;;;;0.00;0.00;;;;;;;15.68;76.85;100102.59;7366112;19;20002;-58
2022/10/20 02:28:15;;;;;;;0.03;0.03;;;;;;;15.71;76.32;100112.09;7363333;19;20032;-58
2022/10/20 02:30:42;;;;;;;0.10;0.10;;;;;;;15.72;76.69;100106.78;7361641;19;20078;-57
2022/10/20 02:33:08;;;;;;;0.10;0.10;;;;;;;15.73;76.67;100105.00;7363795;19;20097;-57
2022/10/20 02:35:34;;;;;;;0.00;0.00;;;;;;;15.74;76.73;100111.94;7364614;19;20536;-57
2022/10/20 02:38:00;;;;;;;0.05;0.05;;;;;;;15.75;76.50;100103.13;7362636;19;20010;-58
2022/10/20 02:40:26;;;;;;;0.00;0.00;;;;;;;15.74;76.65;100097.00;7359798;19;19999;-56
2022/10/20 02:42:51;;;;;;;0.10;0.10;;;;;;;15.71;76.54;100097.19;7362132;19;19999;-58
2022/10/20 02:45:17;;;;;;;0.00;0.00;;;;;;;15.77;76.48;100103.91;7364952;19;20042;-57
2022/10/20 02:47:42;;;;;;;0.10;0.10;;;;;;;15.76;76.42;100105.69;7362699;19;20011;-57
2022/10/20 02:50:08;;;;;;;0.10;0.10;;;;;;;15.76;76.59;100097.78;7363445;19;20006;-58
2022/10/20 02:52:34;;;;;;;0.00;0.00;;;;;;;15.75;76.39;100093.44;7363079;19;20632;-57
2022/10/20 02:54:59;;;;;;;0.00;0.00;;;;;;;15.75;76.57;100090.78;7363519;19;20014;-57
2022/10/20 02:57:25;;;;;;;0.10;0.10;;;;;;;15.77;76.50;100096.00;7363411;19;20584;-56
2022/10/20 02:59:50;;;;;;;0.00;0.00;;;;;;;15.75;76.35;100080.28;7362764;19;20009;-58
2022/10/20 03:02:16;;;;;;;0.00;0.00;;;;;;;15.76;76.73;100081.13;7363563;19;20017;-58
2022/10/20 03:04:41;;;;;;;0.10;0.10;;;;;;;15.76;76.70;100083.75;7352794;19;20039;-57
2022/10/20 03:07:09;;;;;;;0.00;0.00;;;;;;;15.74;76.40;100075.94;7361190;19;20006;-58
2022/10/20 03:09:34;;;;;;;0.00;0.00;;;;;;;15.75;76.10;100064.47;7362686;19;20718;-57
2022/10/20 03:12:00;;;;;;;0.10;0.10;;;;;;;15.76;76.03;100068.84;7366264;19;20002;-57
2022/10/20 03:14:26;;;;;;;0.00;0.00;;;;;;;15.75;76.38;100077.63;7368509;19;20010;-58
2022/10/20 03:16:51;;;;;;;0.10;0.10;;;;;;;15.74;76.06;100068.03;7369415;19;20017;-57
2022/10/20 03:19:16;;;;;;;0.08;0.08;;;;;;;15.73;76.09;100068.97;7359284;19;20036;-58
2022/10/20 03:21:42;;;;;;;0.03;0.03;;;;;;;15.72;76.61;100072.56;7370679;19;20010;-58
2022/10/20 03:24:07;;;;;;;0.00;0.00;;;;;;;15.72;76.78;100072.56;7370057;19;20011;-56
2022/10/20 03:26:33;;;;;;;0.00;0.00;;;;;;;15.70;76.53;100063.88;7371055;19;20094;-57
2022/10/20 03:28:58;;;;;;;0.00;0.00;;;;;;;15.69;76.29;100054.28;7369750;19;20006;-58
2022/10/20 03:31:23;;;;;;;0.00;0.00;;;;;;;15.68;76.41;100064.91;7368750;19;20354;-58
2022/10/20 03:33:49;;;;;;;0.10;0.10;;;;;;;15.66;76.62;100067.63;7368120;19;20055;-56
2022/10/20 03:36:14;;;;;;;0.00;0.00;;;;;;;15.65;76.51;100057.16;7367337;19;20046;-58
2022/10/20 03:38:41;;;;;;;0.00;0.00;;;;;;;15.62;76.76;100055.53;7369673;19;20702;-58
2022/10/20 03:41:07;;;;;;;0.00;0.00;;;;;;;15.56;76.68;100046.19;7369442;19;20018;-58
2022/10/20 03:43:32;;;;;;;0.00;0.00;;;;;;;15.46;76.47;100044.09;7368085;19;20034;-58
2022/10/20 03:46:03;;;;;;;0.00;0.00;;;;;;;15.57;76.70;100065.44;7370411;19;20006;-57
2022/10/20 03:48:28;;;;;;;0.10;0.10;;;;;;;15.53;76.40;100067.38;7366388;19;20011;-58
2022/10/20 03:50:54;;;;;;;0.03;0.03;;;;;;;15.51;77.05;100065.75;7370183;19;25485;-58
2022/10/20 03:53:19;;;;;;;0.00;0.00;;;;;;;15.37;76.48;100045.47;7369556;19;20018;-57
2022/10/20 03:55:45;;;;;;;0.00;0.00;;;;;;;15.48;77.10;100065.94;7370010;19;20017;-57
2022/10/20 03:58:10;;;;;;;0.00;0.00;;;;;;;15.48;77.05;100064.16;7368884;19;20436;-57
2022/10/20 04:00:35;;;;;;;0.00;0.00;;;;;;;15.46;76.82;100057.25;7369874;19;20014;-57
2022/10/20 04:03:01;;;;;;;0.00;0.00;;;;;;;15.45;76.82;100058.19;7367472;19;20102;-58
2022/10/20 04:05:26;;;;;;;0.00;0.00;;;;;;;15.46;77.07;100070.41;7365945;19;20022;-56
2022/10/20 04:07:52;;;;;;;0.00;0.00;;;;;;;15.44;77.19;100061.75;7369711;19;20006;-58
2022/10/20 04:10:17;;;;;;;0.05;0.05;;;;;;;15.43;76.87;100060.06;7367630;19;20006;-57
2022/10/20 04:12:43;;;;;;;0.00;0.00;;;;;;;15.41;76.72;100062.78;7367300;19;20361;-57
2022/10/20 04:15:08;;;;;;;0.10;0.10;;;;;;;15.40;77.22;100055.81;7369470;19;20006;-58
2022/10/20 04:17:35;;;;;;;0.03;0.03;;;;;;;15.38;77.30;100057.69;7366800;19;20015;-57
2022/10/20 04:20:01;;;;;;;0.10;0.10;;;;;;;15.36;77.04;100051.66;7367746;19;20031;-57
2022/10/20 04:22:26;;;;;;;0.03;0.03;;;;;;;15.33;77.29;100049.16;7368746;19;20403;-57
2022/10/20 04:24:52;;;;;;;0.00;0.00;;;;;;;15.29;77.46;100051.09;7367760;19;20010;-58
2022/10/20 04:27:17;;;;;;;0.10;0.10;;;;;;;15.30;77.58;100049.31;7367824;19;20078;-57
2022/10/20 04:29:43;;;;;;;0.00;0.00;;;;;;;15.27;77.28;100050.34;7369127;19;20374;-57
2022/10/20 04:32:08;;;;;;;0.00;0.00;;;;;;;15.25;77.56;100052.19;7367406;19;20014;-57
2022/10/20 04:34:35;;;;;;;0.03;0.03;;;;;;;15.21;77.49;100066.47;7366708;19;20027;-56
2022/10/20 04:37:00;;;;;;;0.10;0.10;;;;;;;15.16;77.89;100065.84;7367697;19;20041;-57
2022/10/20 04:39:26;;;;;;;0.00;0.00;;;;;;;15.17;77.56;100070.16;7367742;19;20006;-57
2022/10/20 04:41:51;;;;;;;0.00;0.00;;;;;;;15.13;77.86;100073.88;7367226;19;20006;-57
2022/10/20 04:44:17;;;;;;;0.00;0.00;;;;;;;15.10;78.07;100074.03;7366921;19;20003;-56
2022/10/20 04:46:42;;;;;;;0.00;0.00;;;;;;;15.05;77.75;100066.41;7364641;19;20086;-58
2022/10/20 04:49:07;;;;;;;0.10;0.10;;;;;;;14.98;78.32;100064.16;7367285;19;20473;-57
2022/10/20 04:51:33;;;;;;;0.00;0.00;;;;;;;15.01;77.99;100058.75;7364848;19;20427;-57
2022/10/20 04:53:58;;;;;;;0.00;0.00;;;;;;;14.98;78.03;100048.38;7368932;19;20013;-57
2022/10/20 04:56:24;;;;;;;0.00;0.00;;;;;;;14.95;77.91;100044.13;7367121;19;20014;-58
2022/10/20 04:58:52;;;;;;;0.00;0.00;;;;;;;14.92;78.38;100032.91;7365876;19;20018;-55
2022/10/20 05:01:18;;;;;;;0.00;0.00;;;;;;;14.90;77.94;100025.13;7367528;19;20010;-58
2022/10/20 05:03:44;;;;;;;0.00;0.00;;;;;;;14.74;78.36;99996.13;7367248;19;20007;-57
2022/10/20 05:06:18;;;;;;;0.00;0.00;;;;;;;14.88;78.09;100010.34;7366724;19;20021;-58
2022/10/20 05:08:45;;;;;;;0.10;0.10;;;;;;;14.83;78.25;100012.34;7366496;19;20014;-57
2022/10/20 05:11:11;;;;;;;0.10;0.10;;;;;;;14.78;78.49;100010.81;7366879;19;20045;-57
2022/10/20 05:13:37;;;;;;;0.00;0.00;;;;;;;14.75;78.30;100013.59;7367389;19;20030;-57
2022/10/20 05:16:03;;;;;;;0.00;0.00;;;;;;;14.61;78.25;99989.81;7368541;19;20022;-57
2022/10/20 05:18:29;;;;;;;0.00;0.00;;;;;;;14.68;78.33;100004.31;7364397;19;20010;-58
2022/10/20 05:20:55;;;;;;;0.00;0.00;;;;;;;14.66;78.17;100013.22;7367841;19;20571;-55
2022/10/20 05:23:21;;;;;;;0.00;0.00;;;;;;;14.62;78.49;100012.50;7367220;19;20018;-56
2022/10/20 05:25:46;;;;;;;0.03;0.03;;;;;;;14.61;78.48;100016.09;7364735;19;20035;-57
2022/10/20 05:28:12;;;;;;;0.00;0.00;;;;;;;14.53;78.27;100026.09;7365807;19;20022;-57
2022/10/20 05:30:37;;;;;;;0.00;0.00;;;;;;;14.56;78.65;100035.63;7365535;19;20018;-57
2022/10/20 05:33:03;;;;;;;0.00;0.00;;;;;;;14.54;78.55;100022.53;7366932;19;20021;-57
2022/10/20 05:35:29;;;;;;;0.03;0.03;;;;;;;14.52;78.63;100029.66;7365720;19;20010;-56
2022/10/20 05:37:55;;;;;;;0.10;0.10;;;;;;;14.50;78.94;100021.88;7366682;19;21162;-58
2022/10/20 05:40:21;;;;;;;0.10;0.10;;;;;;;14.48;78.72;100033.38;7365495;19;20010;-58
2022/10/20 05:42:46;;;;;;;0.03;0.03;;;;;;;14.46;78.72;100030.78;7367365;19;20517;-57
2022/10/20 05:45:12;;;;;;;0.10;0.10;;;;;;;14.44;78.31;100031.78;7366395;19;20070;-57
2022/10/20 05:47:37;;;;;;;0.08;0.08;;;;;;;14.36;78.34;100020.81;7366744;19;20006;-57
2022/10/20 05:50:03;;;;;;;0.00;0.00;;;;;;;14.38;78.74;100021.59;7364794;19;20073;-57
2022/10/20 05:52:28;;;;;;;0.00;0.00;;;;;;;14.38;78.58;100011.06;7366962;19;20006;-57
2022/10/20 05:54:54;;;;;;;0.08;0.08;;;;;;;14.36;78.87;100015.56;7365436;19;20002;-58
2022/10/20 05:57:19;;;;;;;0.03;0.03;;;;;;;14.33;78.90;100013.94;7366787;19;20014;-57
2022/10/20 05:59:45;;;;;;;0.00;0.00;;;;;;;14.28;78.97;100011.53;7356829;19;20013;-57
2022/10/20 06:02:10;;;;;;;0.00;0.00;;;;;;;14.24;78.52;100017.00;7366723;19;20481;-58
2022/10/20 06:04:36;;;;;;;0.00;0.00;;;;;;;14.21;78.55;100007.50;7366123;19;20014;-57
2022/10/20 06:07:02;;;;;;;0.00;0.00;;;;;;;14.25;78.67;100027.44;7363627;19;20018;-57
2022/10/20 06:09:27;;;;;;;0.00;0.00;;;;;;;14.22;78.72;100024.09;7365334;19;20025;-57
2022/10/20 06:11:53;;;;;;;0.03;0.03;;;;;;;14.17;79.03;100021.69;7365902;19;20009;-58
2022/10/20 06:14:21;;;;;;;0.00;0.00;;;;;;;14.17;79.26;100029.59;7364274;19;20016;-57
2022/10/20 06:16:50;;;;;;;0.00;0.00;;;;;;;14.04;78.77;100023.25;7362487;19;20026;-56
2022/10/20 06:19:15;;;;;;;0.00;0.00;;;;;;;14.11;78.81;100040.38;7364073;19;20015;-58
2022/10/20 06:21:40;;;;;;;0.00;0.00;;;;;;;14.06;78.83;100042.38;7365692;19;23794;-58
2022/10/20 06:24:06;;;;;;;0.00;0.00;;;;;;;14.04;78.89;100039.00;7362948;19;20007;-57
2022/10/20 06:26:35;;;;;;;0.00;0.00;;;;;;;14.02;78.86;100046.91;7358079;19;20018;-56
2022/10/20 06:29:02;;;;;;;0.00;0.00;;;;;;;13.98;79.27;100039.25;7356397;19;20410;-57
2022/10/20 06:31:32;;;;;;;0.00;0.00;;;;;;;13.96;78.81;100030.63;7360463;19;20093;-56
2022/10/20 06:33:58;;;;;;;0.00;0.00;;;;;;;13.85;79.03;100025.03;7364331;19;20097;-57
2022/10/20 06:36:25;;;;;;;0.00;0.00;;;;;;;13.88;79.03;100024.88;7363260;19;20101;-57
2022/10/20 06:38:58;;;;;;;0.00;0.00;;;;;;;13.87;78.42;100015.28;7362280;19;20024;-57
2022/10/20 06:41:25;;;;;;;0.05;0.05;;;;;;;13.83;79.01;100013.72;7364415;19;20013;-56
2022/10/20 06:43:58;;;;;;;0.00;0.00;;;;;;;13.79;79.25;100002.53;7362815;19;20029;-56
2022/10/20 06:46:25;;;;;;;0.00;0.00;;;;;;;13.76;79.54;99997.44;7352657;19;20376;-57
2022/10/20 06:48:50;;;;;;;0.00;0.00;;;;;;;13.74;79.59;99994.88;7364307;19;20018;-57
2022/10/20 06:51:18;;;;;;;0.00;0.00;;;;;;;13.61;79.19;99985.88;7353345;19;20010;-57
2022/10/20 06:53:44;;;;;;;0.00;0.00;;;;;;;13.54;79.50;99976.59;7355642;19;20035;-57
2022/10/20 06:56:14;;;;;;;0.00;0.00;;;;;;;13.52;79.49;99981.06;7364639;19;20014;-57
2022/10/20 06:58:41;;;;;;;0.00;0.00;;;;;;;13.63;79.50;100002.38;7360917;19;20021;-57
2022/10/20 07:01:08;;;;;;;;;;;;;;;13.63;77.99;100002.38;7361062;19;20097;-57
2022/10/20 07:03:34;;;;;;;0.00;0.00;;;;;;;13.44;78.84;99976.19;7364035;19;19926;-57
2022/10/20 07:06:02;;;;;;;0.00;0.00;;;;;;;13.53;79.28;100001.09;7362676;19;20130;-57
2022/10/20 07:08:29;;;;;;;0.00;0.00;;;;;;;13.49;79.49;100018.78;7364309;19;20050;-57
2022/10/20 07:10:58;;;;;;;0.00;0.00;;;;;;;13.46;79.19;100021.53;7360668;19;20007;-58
2022/10/20 07:13:23;;;;;;;0.00;0.00;;;;;;;13.42;79.52;100019.13;7358819;19;20474;-57
2022/10/20 07:15:51;;;;;;;0.00;0.00;;;;;;;13.29;79.58;99999.63;7365417;19;20067;-55
2022/10/20 07:18:17;;;;;;;0.00;0.00;;;;;;;13.33;79.76;100024.78;7363362;19;20010;-56
2022/10/20 07:20:42;;;;;;;0.00;0.00;;;;;;;13.33;79.56;100024.78;7364842;19;20781;-57
2022/10/20 07:23:09;;;;;;;0.00;0.00;;;;;;;13.32;79.63;100025.69;7360927;19;20021;-57
2022/10/20 07:25:35;;;;;;;0.00;0.00;;;;;;;13.31;79.96;100026.63;7360868;19;20033;-56
2022/10/20 07:28:00;;;;;;;0.00;0.00;;;;;;;13.28;79.67;100030.25;7363592;19;20011;-58
2022/10/20 07:30:26;;;;;;;0.00;0.00;;;;;;;13.28;79.68;100026.75;7359980;19;20862;-56
2022/10/20 07:32:51;;;;;;;0.00;0.00;;;;;;;13.26;80.06;100018.09;7362642;19;20042;-57
2022/10/20 07:35:16;;;;;;;0.00;0.00;;;;;;;13.24;79.65;100011.16;7360122;19;20039;-56
2022/10/20 07:37:42;;;;;;;0.00;0.00;;;;;;;13.21;80.08;99999.94;7346719;19;20743;-57
2022/10/20 07:40:08;;;;;;;0.00;0.00;;;;;;;13.21;79.87;99999.94;7357865;19;20110;-57
2022/10/20 07:42:33;;;;;;;0.00;0.00;;;;;;;13.19;79.62;100002.63;7347364;19;20003;-57
2022/10/20 07:44:59;;;;;;;0.00;0.00;;;;;;;13.18;79.80;100008.78;7359272;19;20010;-57
2022/10/20 07:47:25;;;;;;;0.00;0.00;;;;;;;13.18;79.58;100010.56;7358927;19;20043;-57
2022/10/20 07:49:50;;;;;;;0.00;0.00;;;;;;;13.15;80.10;100011.53;7359387;19;20022;-58
2022/10/20 07:52:16;;;;;;;0.00;0.00;;;;;;;13.12;79.67;100008.19;7358895;19;20006;-58
2022/10/20 07:54:41;;;;;;;0.00;0.00;;;;;;;13.13;79.65;100012.53;7361890;19;20747;-57
2022/10/20 07:57:06;;;;;;;0.00;0.00;;;;;;;13.04;79.96;100003.31;7361013;19;20002;-58
2022/10/20 07:59:32;;;;;;;0.00;0.00;;;;;;;13.10;80.04;100026.63;7369498;19;20020;-57
2022/10/20 08:01:57;;;;;;;0.00;0.00;;;;;;;13.09;79.75;100022.31;7366651;19;20018;-57
2022/10/20 08:04:23;;;;;;;0.00;0.00;;;;;;;13.10;79.74;100024.00;7367684;19;20094;-57
2022/10/20 08:06:48;;;;;;;0.00;0.00;;;;;;;13.06;79.87;100027.66;7368100;19;20039;-57
2022/10/20 08:09:13;;;;;;;0.00;0.00;;;;;;;12.96;80.09;100008.03;7368565;19;20035;-57
2022/10/20 08:11:39;;;;;;;0.00;0.00;;;;;;;13.09;80.00;100030.16;7367341;19;20024;-56
2022/10/20 08:14:04;;;;;;;0.00;0.00;;;;;;;13.12;79.92;100022.16;7368968;19;20010;-57
2022/10/20 08:16:30;;;;;;;0.00;0.00;;;;;;;13.16;80.36;100012.38;7366161;19;20010;-58
2022/10/20 08:18:55;;;;;;;0.00;0.00;;;;;;;13.19;79.90;100017.50;7345437;19;20042;-57
2022/10/20 08:21:21;;;;;;;0.00;0.00;;;;;;;13.22;80.18;100023.47;7367233;19;20110;-58
2022/10/20 08:23:48;;;;;;;0.00;0.00;;;;;;;13.27;79.81;100025.03;7367452;19;20013;-57
2022/10/20 08:26:19;;;;;;;0.00;0.00;;;;;;;13.33;79.80;100024.78;7366813;19;20030;-57
2022/10/20 08:28:46;;;;;;;0.00;0.00;;;;;;;13.32;79.88;100023.06;7364551;19;20442;-57
2022/10/20 08:31:11;;;;;;;0.00;0.00;;;;;;;13.42;80.04;100024.34;7366090;19;20031;-56
2022/10/20 08:33:38;;;;;;;0.00;0.00;;;;;;;13.55;79.99;100029.91;7365073;19;20024;-55
2022/10/20 08:36:08;;;;;;;0.10;0.10;;;;;;;13.69;80.20;100020.50;7363782;19;20017;-57
2022/10/20 08:38:34;;;;;;;0.00;0.00;;;;;;;13.74;79.63;100012.41;7363507;19;20097;-56
2022/10/20 08:41:01;;;;;;;0.00;0.00;;;;;;;14.01;79.41;100026.84;7365922;19;20025;-57
2022/10/20 08:43:29;;;;;;;0.03;0.03;;;;;;;14.18;79.11;100023.41;7363458;19;20470;-58
2022/10/20 08:45:54;;;;;;;0.00;0.00;;;;;;;14.35;78.92;100021.75;7363434;19;20863;-57
2022/10/20 08:48:24;;;;;;;0.00;0.00;;;;;;;14.57;78.39;100016.31;7361666;19;20026;-57
2022/10/20 08:50:51;;;;;;;0.00;0.00;;;;;;;14.72;78.24;100020.78;7363522;19;20011;-57
2022/10/20 08:53:20;;;;;;;0.00;0.00;;;;;;;14.91;77.50;100018.94;7366543;19;20754;-55
2022/10/20 08:55:45;;;;;;;0.00;0.00;;;;;;;15.10;77.49;100031.94;7366839;19;20006;-57
2022/10/20 08:58:17;;;;;;;0.00;0.00;;;;;;;15.30;76.70;100026.50;7365179;19;20033;-57
2022/10/20 09:00:44;;;;;;;0.00;0.00;;;;;;;15.37;76.37;100020.94;7362950;19;20019;-58
2022/10/20 09:03:20;;;;;;;0.00;0.00;;;;;;;15.58;76.39;100030.31;7357871;19;20029;-57
2022/10/20 09:05:52;;;;;;;0.00;0.00;;;;;;;15.69;75.93;100030.59;7363313;19;20125;-58
2022/10/20 09:08:19;;;;;;;0.10;0.10;;;;;;;15.85;75.91;100024.50;7355444;19;20010;-56
2022/10/20 09:10:51;;;;;;;0.00;0.00;;;;;;;15.92;75.75;99987.22;7359023;19;20014;-57
2022/10/20 09:13:22;;;;;;;0.00;0.00;;;;;;;16.26;75.25;100009.84;7364958;19;20013;-58
2022/10/20 09:15:50;;;;;;;0.00;0.00;;;;;;;16.49;74.77;99999.78;7361415;19;20010;-58
2022/10/20 09:18:18;;;;;;;0.00;0.00;;;;;;;16.73;74.77;99995.72;7364672;19;20064;-57
2022/10/20 09:20:50;;;;;;;0.00;0.00;;;;;;;17.01;74.60;99996.69;7365568;19;20061;-57
2022/10/20 09:23:19;;;;;;;0.00;0.00;;;;;;;17.23;74.03;99997.06;7364127;19;20014;-58
2022/10/20 09:25:46;;;;;;;0.10;0.10;;;;;;;17.46;73.64;99992.19;7365426;19;20023;-57
2022/10/20 09:28:26;;;;;;;0.05;0.05;;;;;;;17.79;73.50;99987.44;7361644;19;20007;-57
2022/10/20 09:30:56;;;;;;;0.05;0.05;;;;;;;18.01;72.79;99988.69;7364584;19;20017;-56
2022/10/20 09:33:27;;;;;;;0.10;0.10;;;;;;;18.25;71.86;99987.09;7360062;19;20692;-58
2022/10/20 09:35:54;;;;;;;0.05;0.05;;;;;;;18.38;71.25;99972.09;7363415;19;20078;-57
2022/10/20 09:38:28;;;;;;;0.10;0.10;;;;;;;18.77;71.81;99978.34;7362117;19;20621;-57
2022/10/20 09:41:05;;;;;;;0.05;0.05;;;;;;;19.04;70.89;99980.03;7362460;19;20054;-57
2022/10/20 09:43:31;;;;;;;0.00;0.00;;;;;;;19.19;70.15;99981.63;7362579;19;20010;-56
2022/10/20 09:46:05;;;;;;;0.00;0.00;;;;;;;19.51;70.19;99974.03;7363889;19;20146;-57
2022/10/20 09:48:35;;;;;;;0.00;0.00;;;;;;;19.67;68.87;99963.25;7362356;19;20105;-57
2022/10/20 09:51:00;;;;;;;0.00;0.00;;;;;;;19.88;68.13;99969.63;7359137;19;20373;-58
2022/10/20 09:53:39;;;;;;;0.10;0.10;;;;;;;20.28;68.53;99964.03;7354629;19;20006;-58
2022/10/20 09:56:05;;;;;;;0.10;0.10;;;;;;;20.42;67.12;99963.81;7359354;19;20018;-58
2022/10/20 09:58:40;;;;;;;0.03;0.03;;;;;;;20.72;67.14;99959.84;7360969;19;20006;-58
2022/10/20 10:01:15;;;;;;;0.00;0.00;;;;;;;20.93;67.47;99955.56;7359652;19;21069;-58
2022/10/20 10:03:43;;;;;;;0.10;0.10;;;;;;;20.98;66.83;99957.81;7358098;19;20007;-57
2022/10/20 10:06:30;;;;;;;0.00;0.00;;;;;;;21.25;68.24;99954.84;7361109;19;20512;-57
2022/10/20 10:08:57;;;;;;;0.10;0.10;;;;;;;21.26;66.69;99956.53;7362250;19;20006;-58
2022/10/20 10:11:33;;;;;;;0.10;0.10;;;;;;;21.45;67.45;99961.25;7361565;19;20043;-58
2022/10/20 10:13:59;;;;;;;0.00;0.00;;;;;;;21.47;66.25;99965.47;7361153;19;20010;-58
2022/10/20 10:16:25;;;;;;;0.10;0.10;;;;;;;21.55;66.10;99961.38;7360088;19;20039;-58
2022/10/20 10:19:16;;;;;;;0.00;0.00;;;;;;;21.80;67.66;99963.72;7362936;19;20025;-57
2022/10/20 10:21:55;;;;;;;0.10;0.10;;;;;;;21.92;67.56;99954.75;7257424;19;2004327;-58
2022/10/20 10:24:41;;;;;;;0.10;0.10;;;;;;;22.12;67.19;99957.63;7359303;19;20014;-58
2022/10/20 10:27:36;;;;;;;0.10;0.10;;;;;;;22.35;67.98;99956.53;7363006;19;20011;-58
2022/10/20 10:30:26;;;;;;;0.05;0.05;;;;;;;22.43;66.78;99954.09;7257942;19;2004527;-57
2022/10/20 10:32:52;;;;;;;0.00;0.00;;;;;;;22.36;64.90;99947.59;7258127;19;2004822;-58
2022/10/20 10:35:28;;;;;;;0.00;0.00;;;;;;;22.51;66.02;99943.66;7361792;19;20018;-58
2022/10/20 10:37:54;;;;;;;0.03;0.03;;;;;;;22.45;65.03;99946.81;7359994;19;20014;-58
2022/10/20 10:40:30;;;;;;;0.00;0.00;;;;;;;22.56;65.01;99945.94;7362619;19;20039;-57
2022/10/20 10:43:20;;;;;;;0.10;0.10;;;;;;;22.66;66.45;99946.84;7356355;19;20102;-58
2022/10/20 10:46:10;;;;;;;0.10;0.10;;;;;;;22.77;66.89;99941.44;7356678;19;20010;-58
2022/10/20 10:48:57;;;;;;;0.03;0.03;;;;;;;22.93;66.80;99935.66;7354337;19;20051;-58
2022/10/20 10:51:41;;;;;;;0.10;0.10;;;;;;;23.10;66.42;99949.31;7358845;19;20036;-58
2022/10/20 10:54:28;;;;;;;0.00;0.00;;;;;;;23.23;66.43;99941.97;7360976;19;20073;-58
2022/10/20 10:56:56;;;;;;;;;;;;;;;23.35;67.00;99940.88;7360987;19;20418;-58
2022/10/20 10:59:29;;;;;;;0.03;0.03;;;;;;;23.17;64.12;99932.69;7360783;19;20038;-57
2022/10/20 11:02:15;;;;;;;0.10;0.10;;;;;;;23.18;64.67;99926.38;7357132;19;20018;-57
2022/10/20 11:04:47;;;;;;;0.10;0.10;;;;;;;23.11;65.02;99935.03;7358631;19;20073;-58
2022/10/20 11:07:41;;;;;;;0.10;0.10;;;;;;;23.21;67.08;99933.25;7360513;19;20010;-58
2022/10/20 11:10:13;;;;;;;0.08;0.08;;;;;;;23.27;65.80;99930.06;7255856;19;2004450;-57
2022/10/20 11:12:47;;;;;;;0.00;0.00;;;;;;;23.36;64.85;99926.56;7357465;19;20007;-58
2022/10/20 11:15:26;;;;;;;0.00;0.00;;;;;;;23.48;65.80;99922.00;7358171;19;20017;-58
2022/10/20 11:17:57;;;;;;;0.00;0.00;;;;;;;23.38;64.59;99919.31;7357089;19;20014;-56
2022/10/20 11:20:41;;;;;;;0.00;0.00;;;;;;;23.50;66.40;99909.38;7355426;19;20017;-57
2022/10/20 11:23:38;;;;;;;0.10;0.10;;;;;;;23.51;65.96;99917.22;7356620;19;20022;-57
2022/10/20 11:26:13;;;;;;;0.03;0.03;;;;;;;23.49;66.04;99905.84;7254766;19;2004397;-56
2022/10/20 11:28:45;;;;;;;0.10;0.10;;;;;;;23.53;64.60;99904.59;7357671;19;20477;-58
2022/10/20 11:31:23;;;;;;;0.10;0.10;;;;;;;23.75;66.05;99913.38;7356039;19;20025;-57
2022/10/20 11:34:04;;;;;;;0.00;0.00;;;;;;;23.87;65.51;99906.91;7363707;19;20011;-58
2022/10/20 11:37:09;;;;;;;0.08;0.08;;;;;;;24.14;65.83;99898.22;7365077;19;20003;-57